sensor_id;sensor_type;location;lat;lon;timestamp;P1;durP1;ratioP1;P2;durP2;ratioP2
12232;SDS011;6179;51.748;8.728;2023-11-18T00:01:48;19.57;;;7.40;;
12232;SDS011;6179;51.748;8.728;2023-11-18T00:07:49;22.13;;;8.90;;
12232;SDS011;6179;51.748;8.728;2023-11-18T00:13:50;9.33;;;6.03;;
12232;SDS011;6179;51.748;8.728;2023-11-18T00:19:51;15.63;;;6.70;;
12232;SDS011;6179;51.748;8.728;2023-11-18T00:25:53;24.40;;;9.43;;
12232;SDS011;6179;51.748;8.728;2023-11-18T00:31:54;12.10;;;6.53;;
12232;SDS011;6179;51.748;8.728;2023-11-18T00:37:55;19.67;;;8.80;;
12232;SDS011;6179;51.748;8.728;2023-11-18T00:43:55;28.37;;;9.90;;
12232;SDS011;6179;51.748;8.728;2023-11-18T00:49:56;15.37;;;6.80;;
12232;SDS011;6179;51.748;8.728;2023-11-18T00:55:57;12.20;;;5.57;;
12232;SDS011;6179;51.748;8.728;2023-11-18T01:01:58;14.10;;;6.13;;
12232;SDS011;6179;51.748;8.728;2023-11-18T01:07:59;21.37;;;8.90;;
12232;SDS011;6179;51.748;8.728;2023-11-18T01:14:00;16.83;;;8.00;;
12232;SDS011;6179;51.748;8.728;2023-11-18T01:20:02;16.47;;;7.23;;
12232;SDS011;6179;51.748;8.728;2023-11-18T01:26:09;14.30;;;7.80;;
12232;SDS011;6179;51.748;8.728;2023-11-18T01:32:12;24.20;;;7.97;;
12232;SDS011;6179;51.748;8.728;2023-11-18T01:38:14;19.20;;;8.67;;
12232;SDS011;6179;51.748;8.728;2023-11-18T01:44:14;14.73;;;7.23;;
12232;SDS011;6179;51.748;8.728;2023-11-18T01:50:15;20.13;;;7.13;;
12232;SDS011;6179;51.748;8.728;2023-11-18T01:56:17;18.70;;;7.57;;
12232;SDS011;6179;51.748;8.728;2023-11-18T02:02:21;16.60;;;6.83;;
12232;SDS011;6179;51.748;8.728;2023-11-18T02:08:21;11.77;;;6.47;;
12232;SDS011;6179;51.748;8.728;2023-11-18T02:14:23;18.13;;;7.60;;
12232;SDS011;6179;51.748;8.728;2023-11-18T02:20:28;16.17;;;7.60;;
12232;SDS011;6179;51.748;8.728;2023-11-18T02:26:30;6.50;;;5.73;;
12232;SDS011;6179;51.748;8.728;2023-11-18T02:32:33;31.73;;;7.67;;
12232;SDS011;6179;51.748;8.728;2023-11-18T02:38:44;15.40;;;6.77;;
12232;SDS011;6179;51.748;8.728;2023-11-18T02:44:50;11.80;;;6.33;;
12232;SDS011;6179;51.748;8.728;2023-11-18T02:50:59;13.40;;;5.87;;
12232;SDS011;6179;51.748;8.728;2023-11-18T02:57:00;13.70;;;6.73;;
12232;SDS011;6179;51.748;8.728;2023-11-18T03:03:01;15.43;;;6.90;;
12232;SDS011;6179;51.748;8.728;2023-11-18T03:09:03;8.93;;;5.70;;
12232;SDS011;6179;51.748;8.728;2023-11-18T03:15:07;11.57;;;5.53;;
12232;SDS011;6179;51.748;8.728;2023-11-18T03:21:13;10.30;;;4.83;;
12232;SDS011;6179;51.748;8.728;2023-11-18T03:27:19;15.97;;;6.67;;
12232;SDS011;6179;51.748;8.728;2023-11-18T03:33:20;14.80;;;6.93;;
12232;SDS011;6179;51.748;8.728;2023-11-18T03:39:20;5.53;;;4.37;;
12232;SDS011;6179;51.748;8.728;2023-11-18T03:45:21;18.53;;;7.57;;
12232;SDS011;6179;51.748;8.728;2023-11-18T03:51:23;12.73;;;5.73;;
12232;SDS011;6179;51.748;8.728;2023-11-18T03:57:23;13.07;;;5.37;;
12232;SDS011;6179;51.748;8.728;2023-11-18T04:03:24;13.70;;;5.90;;
12232;SDS011;6179;51.748;8.728;2023-11-18T04:09:25;18.30;;;6.30;;
12232;SDS011;6179;51.748;8.728;2023-11-18T04:15:26;10.23;;;4.93;;
12232;SDS011;6179;51.748;8.728;2023-11-18T04:21:27;7.67;;;4.40;;
12232;SDS011;6179;51.748;8.728;2023-11-18T04:27:28;12.60;;;5.47;;
12232;SDS011;6179;51.748;8.728;2023-11-18T04:33:29;10.67;;;6.60;;
12232;SDS011;6179;51.748;8.728;2023-11-18T04:39:33;13.20;;;5.80;;
12232;SDS011;6179;51.748;8.728;2023-11-18T04:45:35;14.17;;;5.30;;
12232;SDS011;6179;51.748;8.728;2023-11-18T04:51:35;11.50;;;6.60;;
12232;SDS011;6179;51.748;8.728;2023-11-18T04:57:36;10.10;;;4.23;;
12232;SDS011;6179;51.748;8.728;2023-11-18T05:03:39;14.73;;;5.80;;
12232;SDS011;6179;51.748;8.728;2023-11-18T05:09:39;19.27;;;6.60;;
12232;SDS011;6179;51.748;8.728;2023-11-18T05:15:40;11.50;;;5.53;;
12232;SDS011;6179;51.748;8.728;2023-11-18T05:21:41;21.93;;;6.60;;
12232;SDS011;6179;51.748;8.728;2023-11-18T05:27:42;13.97;;;7.80;;
12232;SDS011;6179;51.748;8.728;2023-11-18T05:33:44;14.47;;;6.40;;
12232;SDS011;6179;51.748;8.728;2023-11-18T05:39:51;10.30;;;5.83;;
12232;SDS011;6179;51.748;8.728;2023-11-18T05:45:59;20.27;;;6.00;;
12232;SDS011;6179;51.748;8.728;2023-11-18T05:52:16;13.57;;;5.80;;
12232;SDS011;6179;51.748;8.728;2023-11-18T05:58:17;11.60;;;5.27;;
12232;SDS011;6179;51.748;8.728;2023-11-18T06:04:18;11.03;;;4.83;;
12232;SDS011;6179;51.748;8.728;2023-11-18T06:10:18;17.93;;;6.43;;
12232;SDS011;6179;51.748;8.728;2023-11-18T06:16:21;15.43;;;8.53;;
12232;SDS011;6179;51.748;8.728;2023-11-18T06:22:24;16.13;;;6.73;;
12232;SDS011;6179;51.748;8.728;2023-11-18T06:28:25;13.50;;;6.60;;
12232;SDS011;6179;51.748;8.728;2023-11-18T06:34:28;20.03;;;6.67;;
12232;SDS011;6179;51.748;8.728;2023-11-18T06:40:29;14.27;;;6.13;;
12232;SDS011;6179;51.748;8.728;2023-11-18T06:46:31;12.10;;;5.73;;
12232;SDS011;6179;51.748;8.728;2023-11-18T06:52:37;14.90;;;6.63;;
12232;SDS011;6179;51.748;8.728;2023-11-18T06:58:38;11.23;;;6.30;;
12232;SDS011;6179;51.748;8.728;2023-11-18T07:04:40;20.23;;;7.17;;
12232;SDS011;6179;51.748;8.728;2023-11-18T07:10:41;8.97;;;5.43;;
12232;SDS011;6179;51.748;8.728;2023-11-18T07:16:43;13.73;;;5.93;;
12232;SDS011;6179;51.748;8.728;2023-11-18T07:22:44;15.90;;;5.93;;
12232;SDS011;6179;51.748;8.728;2023-11-18T07:28:45;14.37;;;6.20;;
12232;SDS011;6179;51.748;8.728;2023-11-18T07:34:46;8.27;;;3.33;;
12232;SDS011;6179;51.748;8.728;2023-11-18T07:40:47;10.80;;;3.43;;
12232;SDS011;6179;51.748;8.728;2023-11-18T07:46:48;7.50;;;4.30;;
12232;SDS011;6179;51.748;8.728;2023-11-18T07:52:49;14.87;;;3.93;;
12232;SDS011;6179;51.748;8.728;2023-11-18T07:58:50;7.43;;;4.47;;
12232;SDS011;6179;51.748;8.728;2023-11-18T08:04:52;5.17;;;3.50;;
12232;SDS011;6179;51.748;8.728;2023-11-18T08:10:52;11.80;;;4.63;;
12232;SDS011;6179;51.748;8.728;2023-11-18T08:16:55;14.50;;;4.17;;
12232;SDS011;6179;51.748;8.728;2023-11-18T08:22:56;5.00;;;2.67;;
12232;SDS011;6179;51.748;8.728;2023-11-18T08:28:57;12.90;;;4.50;;
12232;SDS011;6179;51.748;8.728;2023-11-18T08:34:58;7.10;;;4.43;;
12232;SDS011;6179;51.748;8.728;2023-11-18T08:40:58;7.30;;;3.43;;
12232;SDS011;6179;51.748;8.728;2023-11-18T08:46:59;7.70;;;3.50;;
12232;SDS011;6179;51.748;8.728;2023-11-18T08:53:08;9.27;;;5.27;;
12232;SDS011;6179;51.748;8.728;2023-11-18T08:59:09;7.70;;;3.20;;
12232;SDS011;6179;51.748;8.728;2023-11-18T09:05:11;9.90;;;4.73;;
12232;SDS011;6179;51.748;8.728;2023-11-18T09:11:13;12.40;;;5.40;;
12232;SDS011;6179;51.748;8.728;2023-11-18T09:17:15;9.57;;;4.57;;
12232;SDS011;6179;51.748;8.728;2023-11-18T09:23:15;8.10;;;3.97;;
12232;SDS011;6179;51.748;8.728;2023-11-18T09:29:16;6.70;;;4.50;;
12232;SDS011;6179;51.748;8.728;2023-11-18T09:35:24;8.30;;;3.50;;
12232;SDS011;6179;51.748;8.728;2023-11-18T09:41:27;7.53;;;3.23;;
12232;SDS011;6179;51.748;8.728;2023-11-18T09:47:29;9.03;;;4.00;;
12232;SDS011;6179;51.748;8.728;2023-11-18T09:53:37;8.33;;;4.23;;
12232;SDS011;6179;51.748;8.728;2023-11-18T09:59:44;4.20;;;2.73;;
12232;SDS011;6179;51.748;8.728;2023-11-18T10:06:26;10.00;;;4.40;;
12232;SDS011;6179;51.748;8.728;2023-11-18T10:12:28;8.57;;;3.70;;
12232;SDS011;6179;51.748;8.728;2023-11-18T10:18:29;6.73;;;3.90;;
12232;SDS011;6179;51.748;8.728;2023-11-18T10:24:44;9.97;;;3.30;;
12232;SDS011;6179;51.748;8.728;2023-11-18T10:30:45;7.07;;;4.47;;
12232;SDS011;6179;51.748;8.728;2023-11-18T10:36:59;8.03;;;2.70;;
12232;SDS011;6179;51.748;8.728;2023-11-18T10:43:05;7.40;;;3.57;;
12232;SDS011;6179;51.748;8.728;2023-11-18T10:49:09;6.90;;;3.50;;
12232;SDS011;6179;51.748;8.728;2023-11-18T10:55:10;7.23;;;3.80;;
12232;SDS011;6179;51.748;8.728;2023-11-18T11:01:11;7.10;;;4.50;;
12232;SDS011;6179;51.748;8.728;2023-11-18T11:07:12;13.87;;;4.13;;
12232;SDS011;6179;51.748;8.728;2023-11-18T11:13:16;8.90;;;3.57;;
12232;SDS011;6179;51.748;8.728;2023-11-18T11:19:34;11.80;;;4.80;;
12232;SDS011;6179;51.748;8.728;2023-11-18T11:32:48;10.93;;;4.83;;
12232;SDS011;6179;51.748;8.728;2023-11-18T11:38:53;9.30;;;3.97;;
12232;SDS011;6179;51.748;8.728;2023-11-18T11:44:56;9.53;;;4.83;;
12232;SDS011;6179;51.748;8.728;2023-11-18T11:57:20;10.53;;;3.53;;
12232;SDS011;6179;51.748;8.728;2023-11-18T12:03:23;5.97;;;2.50;;
12232;SDS011;6179;51.748;8.728;2023-11-18T12:09:27;5.20;;;2.87;;
12232;SDS011;6179;51.748;8.728;2023-11-18T12:15:48;5.73;;;3.07;;
12232;SDS011;6179;51.748;8.728;2023-11-18T12:21:54;9.00;;;4.00;;
12232;SDS011;6179;51.748;8.728;2023-11-18T12:27:56;5.47;;;1.80;;
12232;SDS011;6179;51.748;8.728;2023-11-18T12:40:15;3.57;;;2.50;;
12232;SDS011;6179;51.748;8.728;2023-11-18T12:52:57;4.27;;;2.30;;
12232;SDS011;6179;51.748;8.728;2023-11-18T12:58:58;3.07;;;1.80;;
12232;SDS011;6179;51.748;8.728;2023-11-18T13:04:59;7.80;;;2.07;;
12232;SDS011;6179;51.748;8.728;2023-11-18T13:11:09;2.70;;;2.10;;
12232;SDS011;6179;51.748;8.728;2023-11-18T13:17:16;1.30;;;0.93;;
12232;SDS011;6179;51.748;8.728;2023-11-18T13:23:17;4.40;;;1.57;;
12232;SDS011;6179;51.748;8.728;2023-11-18T13:29:18;2.77;;;1.20;;
12232;SDS011;6179;51.748;8.728;2023-11-18T13:35:21;7.17;;;1.40;;
12232;SDS011;6179;51.748;8.728;2023-11-18T13:41:32;1.97;;;0.73;;
12232;SDS011;6179;51.748;8.728;2023-11-18T13:47:34;6.00;;;1.27;;
12232;SDS011;6179;51.748;8.728;2023-11-18T13:53:36;2.93;;;1.47;;
12232;SDS011;6179;51.748;8.728;2023-11-18T13:59:37;4.10;;;1.77;;
12232;SDS011;6179;51.748;8.728;2023-11-18T14:05:39;2.30;;;1.33;;
12232;SDS011;6179;51.748;8.728;2023-11-18T14:11:40;6.30;;;2.70;;
12232;SDS011;6179;51.748;8.728;2023-11-18T14:17:41;7.03;;;2.33;;
12232;SDS011;6179;51.748;8.728;2023-11-18T14:23:42;7.27;;;2.57;;
12232;SDS011;6179;51.748;8.728;2023-11-18T14:29:43;3.77;;;2.50;;
12232;SDS011;6179;51.748;8.728;2023-11-18T14:35:46;4.67;;;2.13;;
12232;SDS011;6179;51.748;8.728;2023-11-18T14:41:47;10.17;;;3.80;;
12232;SDS011;6179;51.748;8.728;2023-11-18T14:47:49;7.10;;;4.07;;
12232;SDS011;6179;51.748;8.728;2023-11-18T14:53:50;7.23;;;2.70;;
12232;SDS011;6179;51.748;8.728;2023-11-18T14:59:50;7.47;;;2.77;;
12232;SDS011;6179;51.748;8.728;2023-11-18T15:05:51;9.03;;;4.63;;
12232;SDS011;6179;51.748;8.728;2023-11-18T15:11:52;6.20;;;2.50;;
12232;SDS011;6179;51.748;8.728;2023-11-18T15:17:53;8.90;;;2.70;;
12232;SDS011;6179;51.748;8.728;2023-11-18T15:23:54;7.20;;;3.70;;
12232;SDS011;6179;51.748;8.728;2023-11-18T15:29:59;2.90;;;2.30;;
12232;SDS011;6179;51.748;8.728;2023-11-18T15:36:02;16.30;;;3.97;;
12232;SDS011;6179;51.748;8.728;2023-11-18T15:42:03;11.97;;;2.57;;
12232;SDS011;6179;51.748;8.728;2023-11-18T15:48:05;4.63;;;1.17;;
12232;SDS011;6179;51.748;8.728;2023-11-18T15:54:10;6.27;;;2.37;;
12232;SDS011;6179;51.748;8.728;2023-11-18T16:00:12;3.50;;;0.90;;
12232;SDS011;6179;51.748;8.728;2023-11-18T16:06:20;1.20;;;0.83;;
12232;SDS011;6179;51.748;8.728;2023-11-18T16:12:21;1.47;;;1.37;;
12232;SDS011;6179;51.748;8.728;2023-11-18T16:18:22;0.60;;;0.60;;
12232;SDS011;6179;51.748;8.728;2023-11-18T16:24:22;3.17;;;1.00;;
12232;SDS011;6179;51.748;8.728;2023-11-18T16:30:23;5.27;;;1.30;;
12232;SDS011;6179;51.748;8.728;2023-11-18T16:36:27;2.50;;;0.83;;
12232;SDS011;6179;51.748;8.728;2023-11-18T16:42:28;3.83;;;1.60;;
12232;SDS011;6179;51.748;8.728;2023-11-18T16:48:28;3.40;;;1.90;;
12232;SDS011;6179;51.748;8.728;2023-11-18T16:54:29;11.23;;;3.70;;
12232;SDS011;6179;51.748;8.728;2023-11-18T17:00:30;10.60;;;4.10;;
12232;SDS011;6179;51.748;8.728;2023-11-18T17:06:32;3.47;;;1.60;;
12232;SDS011;6179;51.748;8.728;2023-11-18T17:12:33;1.80;;;1.70;;
12232;SDS011;6179;51.748;8.728;2023-11-18T17:18:34;4.37;;;1.77;;
12232;SDS011;6179;51.748;8.728;2023-11-18T17:24:34;4.77;;;2.17;;
12232;SDS011;6179;51.748;8.728;2023-11-18T17:30:40;3.27;;;1.23;;
12232;SDS011;6179;51.748;8.728;2023-11-18T17:36:40;0.70;;;0.60;;
12232;SDS011;6179;51.748;8.728;2023-11-18T17:42:42;4.00;;;0.70;;
12232;SDS011;6179;51.748;8.728;2023-11-18T17:48:44;1.03;;;0.80;;
12232;SDS011;6179;51.748;8.728;2023-11-18T17:54:45;0.50;;;0.50;;
12232;SDS011;6179;51.748;8.728;2023-11-18T18:00:46;0.93;;;0.90;;
12232;SDS011;6179;51.748;8.728;2023-11-18T18:06:47;1.93;;;0.90;;
12232;SDS011;6179;51.748;8.728;2023-11-18T18:12:48;2.80;;;1.13;;
12232;SDS011;6179;51.748;8.728;2023-11-18T18:18:50;0.50;;;0.50;;
12232;SDS011;6179;51.748;8.728;2023-11-18T18:24:51;1.03;;;0.60;;
12232;SDS011;6179;51.748;8.728;2023-11-18T18:30:52;1.80;;;0.70;;
12232;SDS011;6179;51.748;8.728;2023-11-18T18:36:53;6.97;;;1.87;;
12232;SDS011;6179;51.748;8.728;2023-11-18T18:42:54;6.83;;;1.40;;
12232;SDS011;6179;51.748;8.728;2023-11-18T18:48:54;3.53;;;1.17;;
12232;SDS011;6179;51.748;8.728;2023-11-18T18:54:55;1.07;;;0.67;;
12232;SDS011;6179;51.748;8.728;2023-11-18T19:00:56;0.90;;;0.60;;
12232;SDS011;6179;51.748;8.728;2023-11-18T19:06:58;0.50;;;0.50;;
12232;SDS011;6179;51.748;8.728;2023-11-18T19:12:59;3.97;;;1.60;;
12232;SDS011;6179;51.748;8.728;2023-11-18T19:19:00;0.67;;;0.57;;
12232;SDS011;6179;51.748;8.728;2023-11-18T19:25:01;0.53;;;0.53;;
12232;SDS011;6179;51.748;8.728;2023-11-18T19:31:01;0.30;;;0.30;;
12232;SDS011;6179;51.748;8.728;2023-11-18T19:37:03;0.40;;;0.40;;
12232;SDS011;6179;51.748;8.728;2023-11-18T19:43:04;1.00;;;0.40;;
12232;SDS011;6179;51.748;8.728;2023-11-18T19:49:05;2.30;;;0.30;;
12232;SDS011;6179;51.748;8.728;2023-11-18T19:55:06;0.30;;;0.30;;
12232;SDS011;6179;51.748;8.728;2023-11-18T20:01:09;0.33;;;0.30;;
12232;SDS011;6179;51.748;8.728;2023-11-18T20:07:15;3.10;;;0.40;;
12232;SDS011;6179;51.748;8.728;2023-11-18T20:13:18;1.40;;;0.53;;
12232;SDS011;6179;51.748;8.728;2023-11-18T20:19:19;0.30;;;0.30;;
12232;SDS011;6179;51.748;8.728;2023-11-18T20:25:20;0.97;;;0.27;;
12232;SDS011;6179;51.748;8.728;2023-11-18T20:31:22;0.60;;;0.40;;
12232;SDS011;6179;51.748;8.728;2023-11-18T20:37:23;0.40;;;0.40;;
12232;SDS011;6179;51.748;8.728;2023-11-18T20:43:24;0.20;;;0.20;;
12232;SDS011;6179;51.748;8.728;2023-11-18T20:49:25;0.20;;;0.20;;
12232;SDS011;6179;51.748;8.728;2023-11-18T20:55:27;0.50;;;0.30;;
12232;SDS011;6179;51.748;8.728;2023-11-18T21:01:27;0.77;;;0.30;;
12232;SDS011;6179;51.748;8.728;2023-11-18T21:07:29;0.60;;;0.50;;
12232;SDS011;6179;51.748;8.728;2023-11-18T21:13:30;0.40;;;0.30;;
12232;SDS011;6179;51.748;8.728;2023-11-18T21:19:31;0.60;;;0.50;;
12232;SDS011;6179;51.748;8.728;2023-11-18T21:25:32;0.77;;;0.77;;
12232;SDS011;6179;51.748;8.728;2023-11-18T21:31:34;2.30;;;1.07;;
12232;SDS011;6179;51.748;8.728;2023-11-18T21:37:38;1.23;;;0.50;;
12232;SDS011;6179;51.748;8.728;2023-11-18T21:43:39;2.03;;;0.50;;
12232;SDS011;6179;51.748;8.728;2023-11-18T21:49:39;1.33;;;0.60;;
12232;SDS011;6179;51.748;8.728;2023-11-18T21:55:42;1.80;;;0.90;;
12232;SDS011;6179;51.748;8.728;2023-11-18T22:01:43;0.30;;;0.30;;
12232;SDS011;6179;51.748;8.728;2023-11-18T22:07:44;0.40;;;0.30;;
12232;SDS011;6179;51.748;8.728;2023-11-18T22:13:46;2.53;;;0.50;;
12232;SDS011;6179;51.748;8.728;2023-11-18T22:19:47;0.60;;;0.60;;
12232;SDS011;6179;51.748;8.728;2023-11-18T22:25:49;1.10;;;0.60;;
12232;SDS011;6179;51.748;8.728;2023-11-18T22:31:50;4.00;;;2.10;;
12232;SDS011;6179;51.748;8.728;2023-11-18T22:37:52;1.07;;;0.90;;
12232;SDS011;6179;51.748;8.728;2023-11-18T22:43:53;1.13;;;1.00;;
12232;SDS011;6179;51.748;8.728;2023-11-18T22:49:54;3.03;;;1.07;;
12232;SDS011;6179;51.748;8.728;2023-11-18T22:55:57;1.87;;;0.80;;
12232;SDS011;6179;51.748;8.728;2023-11-18T23:01:58;0.87;;;0.60;;
12232;SDS011;6179;51.748;8.728;2023-11-18T23:08:03;0.80;;;0.60;;
12232;SDS011;6179;51.748;8.728;2023-11-18T23:14:07;0.50;;;0.40;;
12232;SDS011;6179;51.748;8.728;2023-11-18T23:20:09;0.93;;;0.50;;
12232;SDS011;6179;51.748;8.728;2023-11-18T23:26:11;0.50;;;0.40;;
12232;SDS011;6179;51.748;8.728;2023-11-18T23:32:12;0.30;;;0.30;;
12232;SDS011;6179;51.748;8.728;2023-11-18T23:38:14;0.47;;;0.30;;
12232;SDS011;6179;51.748;8.728;2023-11-18T23:44:18;1.47;;;0.30;;
12232;SDS011;6179;51.748;8.728;2023-11-18T23:50:24;0.20;;;0.20;;
12232;SDS011;6179;51.748;8.728;2023-11-18T23:56:27;0.30;;;0.20;;
